Time;durP1;ratioP1;P1;durP2;ratioP2;P2;SDS_P1;SDS_P2;PMS_P1;PMS_P2;Temp;Humidity;BMP_temperature;BMP_pressure;BME280_temperature;BME280_humidity;BME280_pressure;Samples;Min_cycle;Max_cycle;Signal;HPM_P1;HPM_P2
2022/12/11 00:00:04;;;;;;;;;;;;;;;14.38;91.57;93216.81;5098637;28;1056;-68
2022/12/11 00:02:30;;;;;;;;;;;;;;;14.34;92.12;93212.13;5116459;28;1906;-68
2022/12/11 00:04:56;;;;;;;;;;;;;;;14.35;92.94;93214.59;5116725;28;1060;-68
2022/12/11 00:07:22;;;;;;;;;;;;;;;14.44;92.34;93233.91;5098592;28;1051;-68
2022/12/11 00:09:48;;;;;;;;;;;;;;;14.45;91.75;93246.25;5116300;28;1298;-68
2022/12/11 00:12:14;;;;;;;;;;;;;;;14.48;92.22;93237.75;5116688;28;970;-68
2022/12/11 00:14:40;;;;;;;;;;;;;;;14.44;92.04;93245.47;5116522;28;969;-68
2022/12/11 00:17:06;;;;;;;;;;;;;;;14.50;92.33;93243.72;5116512;28;1039;-68
2022/12/11 00:19:32;;;;;;;;;;;;;;;14.51;92.29;93258.78;5098211;28;1046;-68
2022/12/11 00:21:58;;;;;;;;;;;;;;;14.51;91.98;93253.41;5116244;28;1910;-68
2022/12/11 00:24:24;;;;;;;;;;;;;;;14.54;91.98;93254.81;5116193;28;1035;-68
2022/12/11 00:26:50;;;;;;;;;;;;;;;14.51;92.37;93247.22;5116180;28;1084;-68
2022/12/11 00:29:16;;;;;;;;;;;;;;;14.52;91.78;93256.94;5116117;28;1128;-68
2022/12/11 00:31:43;;;;;;;;;;;;;;;14.64;90.87;93272.06;5116134;28;965;-68
2022/12/11 00:34:10;;;;;;;;;;;;;;;14.76;90.54;93282.00;5115991;28;1041;-68
2022/12/11 00:36:38;;;;;;;;;;;;;;;14.80;90.35;93264.38;5115966;28;1029;-68
2022/12/11 00:39:04;;;;;;;;;;;;;;;14.85;90.14;93259.06;5115567;28;1129;-68
2022/12/11 00:41:30;;;;;;;;;;;;;;;14.89;89.88;93252.19;5115951;28;1991;-68
2022/12/11 00:56:01;;;;;;;;;;;;;;;15.01;82.68;93174.16;5131677;27;1239;-65
2022/12/11 00:58:27;;;;;;;;;;;;;;;14.93;80.45;93183.41;5131277;28;1087;-66
2022/12/11 01:00:53;;;;;;;;;;;;;;;14.93;82.79;93175.34;5131394;27;1289;-65
2022/12/11 01:03:19;;;;;;;;;;;;;;;14.80;81.44;93183.66;5131269;28;1906;-61
2022/12/11 01:05:53;;;;;;;;;;;;;;;14.84;81.25;93187.50;5131268;27;948;-61
2022/12/11 01:08:19;;;;;;;;;;;;;;;14.83;81.89;93197.47;5131230;27;1035;-60
2022/12/11 01:10:45;;;;;;;;;;;;;;;14.83;81.40;93197.47;5130994;28;1091;-60
2022/12/11 01:13:11;;;;;;;;;;;;;;;14.83;78.83;93204.69;5129961;28;1095;-61
2022/12/11 01:15:39;;;;;;;;;;;;;;;14.88;78.34;93201.31;5130946;28;1048;-60
2022/12/11 01:18:05;;;;;;;;;;;;;;;14.92;78.90;93205.97;5131032;27;944;-61
2022/12/11 01:20:31;;;;;;;;;;;;;;;14.92;78.10;93197.09;5130935;28;968;-61
2022/12/11 01:22:58;;;;;;;;;;;;;;;14.99;77.81;93209.38;5129665;28;1100;-60
2022/12/11 01:25:25;;;;;;;;;;;;;;;15.07;75.87;93220.84;5131049;27;1913;-61
2022/12/11 01:27:52;;;;;;;;;;;;;;;15.08;74.77;93211.69;5131048;27;964;-61
2022/12/11 01:30:18;;;;;;;;;;;;;;;15.14;75.10;93226.88;5130945;27;979;-61
2022/12/11 01:32:45;;;;;;;;;;;;;;;15.09;75.03;93237.56;5130661;27;956;-60
2022/12/11 01:35:11;;;;;;;;;;;;;;;15.13;75.03;93261.06;5130713;27;1012;-61
2022/12/11 01:37:37;;;;;;;;;;;;;;;15.03;78.11;93240.13;5130509;28;1103;-61
2022/12/11 01:40:04;;;;;;;;;;;;;;;14.87;78.69;93270.44;5130532;27;1181;-65
2022/12/11 01:42:30;;;;;;;;;;;;;;;14.76;81.12;93280.16;5129443;28;1006;-64
2022/12/11 01:45:15;;;;;;;;;;;;;;;14.69;82.72;93289.38;5130596;27;1910;-64
2022/12/11 01:47:42;;;;;;;;;;;;;;;14.66;82.76;93293.31;5130342;28;1033;-65
2022/12/11 01:50:08;;;;;;;;;;;;;;;14.75;80.69;93299.19;5130531;27;1028;-64
2022/12/11 01:52:35;;;;;;;;;;;;;;;14.82;81.18;93294.53;5129481;28;1064;-65
2022/12/11 01:55:01;;;;;;;;;;;;;;;14.81;81.43;93290.19;5128104;27;1088;-64
2022/12/11 01:57:27;;;;;;;;;;;;;;;14.73;81.86;93295.94;5116706;28;956;-64
2022/12/11 01:59:54;;;;;;;;;;;;;;;14.73;79.58;93247.50;5116683;28;1044;-63
2022/12/11 02:02:27;;;;;;;;;;;;;;;14.78;79.91;93256.53;5116606;28;1055;-64
2022/12/11 02:04:53;;;;;;;;;;;;;;;14.76;80.07;93269.38;5116519;28;1906;-64
2022/12/11 02:07:19;;;;;;;;;;;;;;;14.74;77.87;93267.97;5115603;28;1104;-63
2022/12/11 02:09:46;;;;;;;;;;;;;;;14.95;76.49;93269.25;5116377;28;1036;-61
2022/12/11 02:12:15;;;;;;;;;;;;;;;15.00;75.54;93264.81;5116600;28;1039;-60
2022/12/11 02:14:44;;;;;;;;;;;;;;;14.91;76.19;93273.47;5116378;28;1007;-61
2022/12/11 02:17:17;;;;;;;;;;;;;;;14.89;75.59;93246.81;5115518;28;1060;-65
2022/12/11 02:19:47;;;;;;;;;;;;;;;14.97;74.10;93251.03;5116439;28;1059;-65
2022/12/11 02:22:21;;;;;;;;;;;;;;;14.98;74.33;93256.16;5116409;28;1016;-66
2022/12/11 02:24:53;;;;;;;;;;;;;;;15.02;74.07;93251.97;5116129;28;1973;-66
2022/12/11 02:27:42;;;;;;;;;;;;;;;15.02;74.33;93262.72;5116224;28;973;-65
2022/12/11 02:30:11;;;;;;;;;;;;;;;15.00;74.91;93256.75;5107965;28;1188;-66
2022/12/11 02:32:42;;;;;;;;;;;;;;;15.01;74.42;93265.66;5115949;28;1087;-66
2022/12/11 02:35:28;;;;;;;;;;;;;;;14.99;74.69;93257.00;5114817;28;1049;-65
2022/12/11 02:37:56;;;;;;;;;;;;;;;14.91;76.09;93266.25;5114546;28;1286;-66
2022/12/11 02:40:25;;;;;;;;;;;;;;;14.89;75.94;93276.41;5115954;27;1208;-62
2022/12/11 02:42:52;;;;;;;;;;;;;;;14.88;76.78;93255.94;5116125;28;1063;-62
2022/12/11 02:45:19;;;;;;;;;;;;;;;14.88;76.73;93252.44;5114753;28;1909;-62
2022/12/11 02:47:46;;;;;;;;;;;;;;;14.91;76.88;93260.03;5115781;28;960;-62
2022/12/11 02:50:14;;;;;;;;;;;;;;;14.89;78.27;93267.50;5115826;28;1035;-63
2022/12/11 02:52:41;;;;;;;;;;;;;;;14.85;77.88;93269.84;5115519;28;1114;-62
2022/12/11 02:55:09;;;;;;;;;;;;;;;14.85;78.30;93269.84;5115491;28;1071;-62
2022/12/11 02:57:42;;;;;;;;;;;;;;;14.90;78.35;93275.34;5115511;28;999;-62
2022/12/11 03:00:09;;;;;;;;;;;;;;;14.87;78.35;93285.75;5115563;28;1032;-61
2022/12/11 03:02:35;;;;;;;;;;;;;;;14.93;77.44;93272.22;5115495;28;1008;-62
2022/12/11 03:05:02;;;;;;;;;;;;;;;14.96;77.77;93269.03;5115315;28;1905;-62
2022/12/11 03:07:30;;;;;;;;;;;;;;;14.94;77.69;93273.00;5114302;28;1036;-63
2022/12/11 03:09:56;;;;;;;;;;;;;;;14.89;77.85;93281.81;5114339;28;1028;-63
2022/12/11 03:12:30;;;;;;;;;;;;;;;14.93;77.90;93277.59;5115507;28;975;-62
2022/12/11 03:15:00;;;;;;;;;;;;;;;15.01;77.75;93279.91;5115331;28;995;-62
2022/12/11 03:17:45;;;;;;;;;;;;;;;15.00;77.54;93280.16;5115096;28;1037;-62
2022/12/11 03:20:11;;;;;;;;;;;;;;;14.95;77.47;93280.03;5115107;28;1056;-62
2022/12/11 03:22:57;;;;;;;;;;;;;;;14.92;77.79;93267.06;5115154;28;1040;-63
2022/12/11 03:25:29;;;;;;;;;;;;;;;14.86;76.79;93270.69;5115154;27;1905;-62
2022/12/11 03:28:02;;;;;;;;;;;;;;;14.82;76.08;93273.00;5115117;28;1019;-63
2022/12/11 03:30:30;;;;;;;;;;;;;;;14.74;76.65;93270.66;5115160;28;969;-63
2022/12/11 03:33:04;;;;;;;;;;;;;;;14.75;76.87;93272.31;5113934;28;1856;-62
2022/12/11 03:35:39;;;;;;;;;;;;;;;14.76;77.01;93279.31;5115151;28;1023;-63
2022/12/11 03:38:07;;;;;;;;;;;;;;;14.76;76.83;93280.16;5114909;28;1031;-62
2022/12/11 03:40:34;;;;;;;;;;;;;;;14.70;75.60;93283.78;5114573;28;1223;-62
2022/12/11 03:43:01;;;;;;;;;;;;;;;14.72;74.19;93284.34;5113429;28;1029;-61
2022/12/11 03:45:29;;;;;;;;;;;;;;;14.78;75.76;93282.59;5114510;28;1976;-62
2022/12/11 03:47:56;;;;;;;;;;;;;;;14.88;75.48;93287.41;5114736;28;1011;-61
2022/12/11 03:50:25;;;;;;;;;;;;;;;14.93;74.57;93290.19;5114614;28;1012;-62
2022/12/11 03:52:52;;;;;;;;;;;;;;;14.94;73.56;93281.91;5113408;28;1041;-62
2022/12/11 03:55:20;;;;;;;;;;;;;;;14.89;74.02;93272.88;5114277;28;1240;-63
2022/12/11 03:57:46;;;;;;;;;;;;;;;14.78;74.20;93285.28;5114318;28;1056;-63
2022/12/11 04:00:14;;;;;;;;;;;;;;;14.76;74.03;93273.91;5114543;28;1037;-63
2022/12/11 04:02:40;;;;;;;;;;;;;;;14.72;74.61;93278.13;5114271;28;1032;-61
2022/12/11 04:05:07;;;;;;;;;;;;;;;14.68;74.51;93269.72;5113176;28;2003;-63
2022/12/11 04:07:33;;;;;;;;;;;;;;;14.67;74.45;93256.53;5114267;28;1004;-62
2022/12/11 04:09:59;;;;;;;;;;;;;;;14.64;74.21;93255.09;5112964;28;1048;-63
2022/12/11 04:12:25;;;;;;;;;;;;;;;14.67;73.99;93264.59;5114397;28;1047;-62
2022/12/11 04:15:00;;;;;;;;;;;;;;;14.68;73.24;93255.44;5114132;28;1045;-63
2022/12/11 04:25:47;;;;;;;;;;;;;;;14.66;74.09;93273.69;5114065;28;1046;-63
2022/12/11 04:28:13;;;;;;;;;;;;;;;14.64;74.78;93285.50;5113910;28;1072;-63
2022/12/11 04:30:39;;;;;;;;;;;;;;;14.62;75.36;93286.78;5113945;28;1032;-62
2022/12/11 04:33:05;;;;;;;;;;;;;;;14.60;75.50;93292.38;5146948;27;1119;-63
2022/12/11 04:35:31;;;;;;;;;;;;;;;14.56;75.19;93296.56;5113999;28;1015;-62
2022/12/11 04:37:57;;;;;;;;;;;;;;;14.50;74.79;93286.72;5113894;28;1087;-62
2022/12/11 04:40:23;;;;;;;;;;;;;;;14.36;74.00;93285.28;5113914;28;1149;-63
2022/12/11 04:42:50;;;;;;;;;;;;;;;14.37;74.46;93286.94;5113771;28;1040;-62
2022/12/11 04:45:17;;;;;;;;;;;;;;;14.37;74.50;93290.44;5113781;28;1949;-63
2022/12/11 04:47:43;;;;;;;;;;;;;;;14.45;74.06;93289.28;5112383;28;1060;-62
2022/12/11 04:50:10;;;;;;;;;;;;;;;14.51;74.02;93301.00;5113742;28;1049;-62
2022/12/11 04:52:36;;;;;;;;;;;;;;;14.52;73.92;93308.03;5113832;28;1020;-63
2022/12/11 04:55:05;;;;;;;;;;;;;;;14.53;74.51;93304.25;5113616;28;1214;-63
2022/12/11 04:57:32;;;;;;;;;;;;;;;14.56;74.59;93303.81;5112488;28;964;-62
2022/12/11 04:59:58;;;;;;;;;;;;;;;14.53;74.40;93297.03;5113700;28;1047;-62
2022/12/11 05:02:25;;;;;;;;;;;;;;;14.61;74.86;93303.97;5113615;28;1035;-63
2022/12/11 05:04:51;;;;;;;;;;;;;;;14.63;74.37;93312.63;5113529;28;2009;-63
2022/12/11 05:07:17;;;;;;;;;;;;;;;14.64;74.58;93315.09;5113542;28;1091;-62
2022/12/11 05:09:43;;;;;;;;;;;;;;;14.63;74.99;93324.19;5113442;28;1048;-62
2022/12/11 05:12:09;;;;;;;;;;;;;;;14.69;74.96;93324.34;5113569;28;1044;-63
2022/12/11 05:14:35;;;;;;;;;;;;;;;14.73;75.14;93326.31;5113445;28;1047;-62
2022/12/11 05:17:01;;;;;;;;;;;;;;;14.72;74.95;93326.56;5112225;28;1036;-63
2022/12/11 05:19:27;;;;;;;;;;;;;;;14.75;74.83;93320.72;5113581;28;964;-61
2022/12/11 05:21:53;;;;;;;;;;;;;;;14.76;75.07;93323.19;5113428;28;1260;-62
2022/12/11 05:24:19;;;;;;;;;;;;;;;14.72;75.13;93313.94;5113434;28;1975;-62
2022/12/11 05:26:45;;;;;;;;;;;;;;;14.72;75.31;93322.00;5113301;28;1163;-62
2022/12/11 05:29:11;;;;;;;;;;;;;;;14.76;75.31;93322.34;5112193;28;1032;-62
2022/12/11 05:31:37;;;;;;;;;;;;;;;14.79;75.32;93338.03;5115622;28;1059;-61
2022/12/11 05:34:03;;;;;;;;;;;;;;;14.84;75.02;93328.22;5117423;28;976;-63
2022/12/11 05:36:32;;;;;;;;;;;;;;;14.89;75.21;93337.47;5117234;27;924;-62
2022/12/11 05:38:59;;;;;;;;;;;;;;;14.85;75.19;93334.41;5117033;28;1212;-62
2022/12/11 05:41:27;;;;;;;;;;;;;;;14.78;75.84;93336.41;5116981;28;1096;-61
2022/12/11 05:43:53;;;;;;;;;;;;;;;14.75;76.27;93326.91;5117011;28;1992;-63
2022/12/11 05:46:20;;;;;;;;;;;;;;;14.84;76.11;93330.09;5116870;28;1048;-63
2022/12/11 05:48:47;;;;;;;;;;;;;;;14.79;76.23;93338.03;5117024;28;1012;-62
2022/12/11 05:51:14;;;;;;;;;;;;;;;14.75;76.74;93337.66;5117113;27;956;-61
2022/12/11 05:53:41;;;;;;;;;;;;;;;14.74;77.51;93337.91;5116735;28;1211;-63
2022/12/11 05:56:09;;;;;;;;;;;;;;;14.71;77.73;93333.00;5116907;28;1042;-62
2022/12/11 05:58:35;;;;;;;;;;;;;;;14.71;77.77;93336.50;5115401;28;1134;-62
2022/12/11 06:01:05;;;;;;;;;;;;;;;14.70;78.28;93334.88;5116676;28;1099;-61
2022/12/11 06:03:31;;;;;;;;;;;;;;;14.75;78.30;93334.16;5116723;28;1898;-61
2022/12/11 06:06:00;;;;;;;;;;;;;;;14.71;78.18;93331.13;5116602;28;1083;-62
2022/12/11 06:08:26;;;;;;;;;;;;;;;14.74;77.95;93332.50;5116432;27;1084;-62
2022/12/11 06:10:52;;;;;;;;;;;;;;;14.70;78.97;93334.03;5116540;28;1052;-61
2022/12/11 06:13:18;;;;;;;;;;;;;;;14.61;79.32;93330.88;5116385;28;1037;-61
2022/12/11 06:15:44;;;;;;;;;;;;;;;14.65;79.71;93329.34;5116292;28;1115;-62
2022/12/11 06:18:10;;;;;;;;;;;;;;;14.62;79.20;93322.56;5116555;28;1031;-61
2022/12/11 06:20:36;;;;;;;;;;;;;;;14.65;79.27;93323.97;5116187;28;1036;-61
2022/12/11 06:23:02;;;;;;;;;;;;;;;14.70;79.00;93332.19;5149144;27;1100;-62
2022/12/11 06:25:28;;;;;;;;;;;;;;;14.74;79.25;93338.75;5116135;28;1914;-60
2022/12/11 06:27:54;;;;;;;;;;;;;;;14.73;78.54;93338.97;5116215;28;988;-61
2022/12/11 06:30:21;;;;;;;;;;;;;;;14.66;79.11;93322.91;5116119;28;1040;-61
2022/12/11 06:32:48;;;;;;;;;;;;;;;14.67;79.13;93323.75;5116248;27;1055;-61
2022/12/11 06:35:14;;;;;;;;;;;;;;;14.71;79.58;93325.75;5116206;28;1008;-62
2022/12/11 06:37:40;;;;;;;;;;;;;;;14.84;78.99;93332.78;5116050;28;1000;-61
2022/12/11 06:40:07;;;;;;;;;;;;;;;14.87;78.53;93332.31;5116318;28;1165;-60
2022/12/11 06:42:33;;;;;;;;;;;;;;;14.93;78.12;93333.25;5115709;28;976;-61
2022/12/11 06:45:00;;;;;;;;;;;;;;;14.91;77.84;93336.19;5115802;28;1918;-60
2022/12/11 06:47:26;;;;;;;;;;;;;;;14.91;78.13;93335.34;5115697;28;1036;-61
2022/12/11 06:49:52;;;;;;;;;;;;;;;14.99;77.31;93329.66;5115902;28;1015;-61
2022/12/11 06:52:19;;;;;;;;;;;;;;;15.13;76.93;93338.31;5115854;28;1020;-61
2022/12/11 06:54:45;;;;;;;;;;;;;;;15.17;77.05;93340.28;5115497;28;1218;-62
2022/12/11 06:57:11;;;;;;;;;;;;;;;15.31;76.71;93346.28;5115586;28;972;-61
2022/12/11 06:59:37;;;;;;;;;;;;;;;15.59;75.75;93342.88;5114039;28;1187;-61
2022/12/11 07:02:03;;;;;;;;;;;;;;;15.81;74.64;93356.56;5115776;28;1016;-61
2022/12/11 07:04:30;;;;;;;;;;;;;;;15.88;74.85;93363.69;5115281;28;1918;-61
2022/12/11 07:06:56;;;;;;;;;;;;;;;15.83;75.52;93371.69;5115615;27;1005;-61
2022/12/11 07:09:22;;;;;;;;;;;;;;;15.67;76.34;93370.47;5115322;28;1052;-61
2022/12/11 07:11:52;;;;;;;;;;;;;;;15.70;76.39;93368.13;5115216;27;951;-62
2022/12/11 07:14:19;;;;;;;;;;;;;;;15.56;76.91;93367.56;5115527;28;991;-62
2022/12/11 07:16:45;;;;;;;;;;;;;;;15.33;77.99;93365.72;5115195;28;1025;-62
2022/12/11 07:19:11;;;;;;;;;;;;;;;15.24;79.14;93369.78;5115384;28;1031;-61
2022/12/11 07:21:37;;;;;;;;;;;;;;;15.18;79.47;93368.84;5113651;28;1092;-61
2022/12/11 07:24:03;;;;;;;;;;;;;;;15.29;79.05;93369.94;5115046;28;1913;-61
2022/12/11 07:26:29;;;;;;;;;;;;;;;15.37;78.64;93376.84;5114848;28;1020;-61
2022/12/11 07:28:56;;;;;;;;;;;;;;;15.43;78.96;93382.09;5115217;28;956;-61
2022/12/11 07:31:23;;;;;;;;;;;;;;;15.54;78.29;93387.72;5115159;28;1039;-62
2022/12/11 07:33:53;;;;;;;;;;;;;;;15.71;77.25;93382.44;5113761;28;1016;-61
2022/12/11 07:36:19;;;;;;;;;;;;;;;15.85;77.17;93381.16;5114905;28;1044;-62
2022/12/11 07:38:45;;;;;;;;;;;;;;;15.94;76.40;93385.13;5114696;28;1149;-61
2022/12/11 07:41:13;;;;;;;;;;;;;;;16.05;75.86;93378.09;5113515;28;1040;-61
2022/12/11 07:43:40;;;;;;;;;;;;;;;16.41;74.57;93381.50;5114768;28;1988;-62
2022/12/11 07:46:07;;;;;;;;;;;;;;;16.64;74.02;93391.38;5114661;27;1100;-61
2022/12/11 07:48:36;;;;;;;;;;;;;;;16.63;74.13;93383.50;5114957;28;953;-61
2022/12/11 07:51:06;;;;;;;;;;;;;;;16.91;73.14;93386.22;5114583;27;1053;-61
2022/12/11 07:53:33;;;;;;;;;;;;;;;17.37;70.76;93400.47;5113886;28;1120;-61
2022/12/11 07:55:59;;;;;;;;;;;;;;;17.26;71.41;93387.06;5113099;28;1191;-62
2022/12/11 07:58:26;;;;;;;;;;;;;;;16.84;73.01;93395.53;5114362;28;1116;-61
2022/12/11 08:00:52;;;;;;;;;;;;;;;16.44;74.66;93394.47;5114561;28;1116;-61
2022/12/11 08:03:18;;;;;;;;;;;;;;;16.14;75.59;93392.84;5114489;28;981;-61
2022/12/11 08:05:48;;;;;;;;;;;;;;;15.97;76.28;93389.22;5114295;28;1902;-61
2022/12/11 08:08:14;;;;;;;;;;;;;;;15.92;76.73;93386.44;5112987;28;969;-61
2022/12/11 08:10:41;;;;;;;;;;;;;;;16.11;75.51;93374.44;5114075;28;1149;-61
2022/12/11 08:13:07;;;;;;;;;;;;;;;16.32;75.67;93372.97;5114412;28;1032;-62
2022/12/11 08:15:33;;;;;;;;;;;;;;;16.65;74.18;93363.31;5114052;28;1029;-62
2022/12/11 08:17:59;;;;;;;;;;;;;;;16.82;73.82;93368.78;5114254;28;978;-61
2022/12/11 08:20:25;;;;;;;;;;;;;;;16.73;74.48;93359.41;5114133;28;1020;-62
2022/12/11 08:22:51;;;;;;;;;;;;;;;16.52;74.33;93356.34;5113983;28;1056;-61
2022/12/11 08:25:17;;;;;;;;;;;;;;;16.36;75.18;93351.72;5114193;28;1991;-62
2022/12/11 08:27:43;;;;;;;;;;;;;;;16.18;77.09;93350.00;5114152;28;965;-61
2022/12/11 08:30:09;;;;;;;;;;;;;;;16.22;77.50;93355.75;5147089;27;1047;-61
2022/12/11 08:32:35;;;;;;;;;;;;;;;16.34;77.09;93348.44;5113886;28;1229;-62
2022/12/11 08:35:01;;;;;;;;;;;;;;;16.20;75.89;93346.03;5113965;28;972;-61
2022/12/11 08:37:28;;;;;;;;;;;;;;;16.28;76.71;93355.63;5113784;28;1073;-62
2022/12/11 08:39:54;;;;;;;;;;;;;;;16.68;75.14;93353.94;5114014;28;1149;-61
2022/12/11 08:42:20;;;;;;;;;;;;;;;17.16;72.84;93363.41;5113800;28;1123;-62
2022/12/11 08:44:46;;;;;;;;;;;;;;;17.35;72.61;93367.50;5113807;28;1905;-61
2022/12/11 08:47:14;;;;;;;;;;;;;;;17.61;71.69;93367.88;5112676;28;980;-62
2022/12/11 08:49:40;;;;;;;;;;;;;;;17.84;70.70;93374.16;5112596;28;1138;-62
2022/12/11 08:52:06;;;;;;;;;;;;;;;18.08;70.00;93372.06;5113763;28;1073;-62
2022/12/11 08:54:32;;;;;;;;;;;;;;;18.10;70.48;93370.75;5113412;28;1084;-62
2022/12/11 08:56:58;;;;;;;;;;;;;;;18.14;70.38;93366.47;5113913;28;996;-62
2022/12/11 08:59:24;;;;;;;;;;;;;;;18.34;69.13;93371.31;5113853;28;1017;-62
2022/12/11 09:01:50;;;;;;;;;;;;;;;18.73;68.01;93365.78;5113617;28;1202;-62
2022/12/11 09:04:16;;;;;;;;;;;;;;;19.16;66.66;93360.53;5112452;28;1902;-62
2022/12/11 09:06:42;;;;;;;;;;;;;;;19.58;65.42;93357.06;5115065;28;1037;-63
2022/12/11 09:09:08;;;;;;;;;;;;;;;19.86;64.17;93355.09;5117766;28;972;-62
2022/12/11 09:11:35;;;;;;;;;;;;;;;20.20;62.48;93341.97;5117756;28;1035;-62
2022/12/11 09:14:02;;;;;;;;;;;;;;;20.60;61.69;93348.69;5117604;28;1044;-62
2022/12/11 09:16:28;;;;;;;;;;;;;;;21.88;58.56;93353.38;5117609;28;960;-62
2022/12/11 09:18:56;;;;;;;;;;;;;;;24.67;49.75;93354.75;5117560;28;1049;-61
2022/12/11 09:21:23;;;;;;;;;;;;;;;26.92;45.21;93360.34;5117484;28;984;-62
2022/12/11 09:23:53;;;;;;;;;;;;;;;27.77;42.00;93368.84;5117705;28;1906;-62
2022/12/11 09:26:19;;;;;;;;;;;;;;;26.08;45.08;93366.88;5117569;28;1024;-62
2022/12/11 09:28:46;;;;;;;;;;;;;;;23.33;51.47;93354.38;5116153;28;1040;-62
2022/12/11 09:31:14;;;;;;;;;;;;;;;22.18;55.10;93351.69;5117401;28;1040;-62
2022/12/11 09:33:41;;;;;;;;;;;;;;;20.55;60.17;93340.47;5117200;28;1028;-62
2022/12/11 09:36:07;;;;;;;;;;;;;;;19.59;63.18;93341.63;5117107;28;968;-62
2022/12/11 09:38:35;;;;;;;;;;;;;;;19.69;62.82;93337.09;5116936;28;1202;-62
2022/12/11 09:41:01;;;;;;;;;;;;;;;23.72;51.95;93337.16;5116096;28;964;-62
2022/12/11 09:43:46;;;;;;;;;;;;;;;27.84;42.70;93341.75;5117142;28;1177;-62
2022/12/11 09:46:13;;;;;;;;;;;;;;;29.40;38.19;93348.19;5116974;28;1115;-62
2022/12/11 09:48:47;;;;;;;;;;;;;;;28.75;39.58;93333.34;5116777;28;1052;-61
2022/12/11 09:51:13;;;;;;;;;;;;;;;28.62;40.20;93335.88;5116962;28;1032;-61
2022/12/11 09:53:39;;;;;;;;;;;;;;;27.88;38.81;93325.47;5116836;28;1254;-62
2022/12/11 09:56:05;;;;;;;;;;;;;;;26.77;39.62;93319.53;5116899;28;1041;-62
2022/12/11 09:58:50;;;;;;;;;;;;;;;23.66;43.92;93311.84;5116717;28;1137;-61
2022/12/11 10:01:33;;;;;;;;;;;;;;;21.22;49.75;93281.66;5116597;28;1029;-61
2022/12/11 10:03:59;;;;;;;;;;;;;;;19.99;53.54;93283.28;5116830;28;1911;-61
2022/12/11 10:06:42;;;;;;;;;;;;;;;20.63;52.62;93290.31;5116802;28;980;-62
2022/12/11 10:09:43;;;;;;;;;;;;;;;21.09;49.61;93289.53;5116756;27;1019;-61
2022/12/11 10:12:12;;;;;;;;;;;;;;;20.76;52.24;93286.25;5053606;28;1440;-62
2022/12/11 10:15:07;;;;;;;;;;;;;;;21.39;51.79;93296.88;5100321;28;1020;-61
2022/12/11 10:17:36;;;;;;;;;;;;;;;23.04;46.54;93288.94;5097403;28;1177;-61
2022/12/11 10:20:13;;;;;;;;;;;;;;;25.00;42.36;93291.97;5116300;28;1080;-63
2022/12/11 10:22:39;;;;;;;;;;;;;;;27.74;38.15;93302.78;5116501;28;1029;-63
2022/12/11 10:25:06;;;;;;;;;;;;;;;30.25;34.51;93320.09;5116521;28;1998;-63
2022/12/11 10:27:34;;;;;;;;;;;;;;;31.37;33.06;93321.81;5116306;28;1040;-62
2022/12/11 10:30:03;;;;;;;;;;;;;;;30.99;32.50;93308.94;5116288;28;1015;-62
2022/12/11 10:32:49;;;;;;;;;;;;;;;28.11;37.18;93287.00;5116003;28;952;-62
2022/12/11 10:35:24;;;;;;;;;;;;;;;25.74;41.94;93266.72;5114733;28;1253;-62
2022/12/11 10:37:51;;;;;;;;;;;;;;;23.01;46.05;93254.84;5116026;28;1057;-61
2022/12/11 10:40:19;;;;;;;;;;;;;;;21.44;51.19;93237.91;5116008;28;1149;-61
2022/12/11 10:42:52;;;;;;;;;;;;;;;20.43;53.94;93245.72;5115946;28;1028;-61
2022/12/11 10:45:18;;;;;;;;;;;;;;;19.70;56.97;93246.53;5115823;28;1902;-62
2022/12/11 10:47:44;;;;;;;;;;;;;;;19.93;56.20;93247.19;5116000;28;1035;-61
2022/12/11 10:50:21;;;;;;;;;;;;;;;20.18;54.46;93246.47;5115771;28;1099;-62
2022/12/11 10:52:47;;;;;;;;;;;;;;;19.98;55.67;93244.53;5115781;28;977;-62
2022/12/11 10:55:19;;;;;;;;;;;;;;;19.34;58.46;93247.44;5115562;28;1092;-61
2022/12/11 10:57:52;;;;;;;;;;;;;;;18.59;59.84;93245.50;5115579;28;968;-61
2022/12/11 11:00:47;;;;;;;;;;;;;;;18.16;60.58;93243.72;5114630;28;1023;-61
2022/12/11 11:03:22;;;;;;;;;;;;;;;17.87;62.51;93250.16;5102173;28;1376;-61
2022/12/11 11:05:49;;;;;;;;;;;;;;;17.71;64.64;93249.13;5115361;28;1905;-61
2022/12/11 11:08:18;;;;;;;;;;;;;;;17.59;66.43;93248.44;5115350;28;1039;-61
2022/12/11 11:10:51;;;;;;;;;;;;;;;17.61;67.06;93249.00;5115312;28;1104;-61
2022/12/11 11:13:19;;;;;;;;;;;;;;;17.55;68.15;93247.31;5115461;28;1024;-61
2022/12/11 11:15:45;;;;;;;;;;;;;;;17.31;67.96;93244.00;5115188;28;1037;-61
2022/12/11 11:18:15;;;;;;;;;;;;;;;17.31;69.27;93244.81;5114071;28;1028;-60
2022/12/11 11:20:46;;;;;;;;;;;;;;;17.23;70.13;93241.75;5115045;28;1061;-61
2022/12/11 11:23:13;;;;;;;;;;;;;;;17.29;69.57;93241.56;5115172;28;1080;-61
2022/12/11 11:25:47;;;;;;;;;;;;;;;17.26;70.14;93246.63;5115284;28;1988;-61
2022/12/11 11:28:23;;;;;;;;;;;;;;;17.16;70.06;93236.50;5114362;28;956;-60
2022/12/11 11:31:01;;;;;;;;;;;;;;;17.20;70.71;93237.63;5113764;28;972;-61
2022/12/11 11:33:28;;;;;;;;;;;;;;;17.24;70.05;93243.38;5113613;28;1189;-61
2022/12/11 11:35:55;;;;;;;;;;;;;;;17.18;70.11;93234.38;5115070;28;953;-60
2022/12/11 11:38:28;;;;;;;;;;;;;;;17.15;70.08;93233.00;5113749;28;1219;-61
2022/12/11 11:41:00;;;;;;;;;;;;;;;17.21;70.19;93228.47;5114806;28;1037;-61
2022/12/11 11:43:45;;;;;;;;;;;;;;;17.18;70.20;93226.28;5114669;28;1111;-60
2022/12/11 11:46:15;;;;;;;;;;;;;;;16.97;70.20;93227.84;5115045;28;1012;-61
2022/12/11 11:48:47;;;;;;;;;;;;;;;16.91;70.33;93223.47;5114710;28;1032;-60
2022/12/11 11:51:15;;;;;;;;;;;;;;;16.75;70.40;93231.28;5114706;28;988;-61
2022/12/11 11:53:45;;;;;;;;;;;;;;;16.72;71.34;93218.28;5114291;28;1108;-62
2022/12/11 11:56:14;;;;;;;;;;;;;;;16.65;70.71;93217.63;5114499;28;1027;-61
2022/12/11 12:04:45;;;;;;;;;;;;;;;16.19;73.71;93214.97;5011483;28;1902;-70
2022/12/11 12:07:30;;;;;;;;;;;;;;;16.17;72.60;93210.91;5014071;28;1105;-70
2022/12/11 12:10:11;;;;;;;;;;;;;;;16.10;74.72;93216.44;5013998;28;985;-69
2022/12/11 12:12:40;;;;;;;;;;;;;;;15.96;74.51;93217.81;5014131;28;1036;-70
2022/12/11 12:15:12;;;;;;;;;;;;;;;16.01;73.57;93215.19;5014150;28;1020;-70
2022/12/11 12:17:41;;;;;;;;;;;;;;;15.98;75.66;93215.69;5013807;28;1034;-70
2022/12/11 12:20:19;;;;;;;;;;;;;;;15.87;76.76;93209.28;5013946;28;1017;-70
2022/12/11 12:23:17;;;;;;;;;;;;;;;15.97;75.65;93214.03;5014036;28;985;-70
2022/12/11 12:25:56;;;;;;;;;;;;;;;15.95;75.11;93208.91;4980763;28;1982;-70
2022/12/11 12:28:25;;;;;;;;;;;;;;;15.98;75.21;93213.81;5013767;28;1046;-70
2022/12/11 12:31:10;;;;;;;;;;;;;;;15.92;75.66;93217.47;5013739;28;997;-70
2022/12/11 12:33:37;;;;;;;;;;;;;;;15.83;76.21;93218.91;5013832;28;1033;-70
2022/12/11 12:36:03;;;;;;;;;;;;;;;15.80;75.71;93225.59;5013778;28;973;-69
2022/12/11 12:38:39;;;;;;;;;;;;;;;15.79;76.28;93231.22;5015488;28;1112;-69
2022/12/11 12:41:23;;;;;;;;;;;;;;;15.83;75.69;93220.78;5033184;28;1089;-70
2022/12/11 12:44:04;;;;;;;;;;;;;;;15.88;75.92;93223.56;5033393;28;1994;-70
2022/12/11 12:46:48;;;;;;;;;;;;;;;15.78;74.97;93216.94;5033373;28;955;-70
2022/12/11 12:49:16;;;;;;;;;;;;;;;15.77;75.22;93201.03;5033358;28;1049;-70
2022/12/11 12:51:43;;;;;;;;;;;;;;;15.68;75.60;93207.81;5033105;28;1120;-70
2022/12/11 12:54:13;;;;;;;;;;;;;;;15.78;76.00;93206.19;5033139;28;978;-70
2022/12/11 12:56:42;;;;;;;;;;;;;;;15.79;74.82;93210.50;5033289;28;1036;-70
2022/12/11 12:59:18;;;;;;;;;;;;;;;15.79;74.74;93213.19;5033438;28;957;-70
2022/12/11 13:01:51;;;;;;;;;;;;;;;15.74;71.16;93205.00;5033143;28;1013;-70
2022/12/11 13:04:26;;;;;;;;;;;;;;;15.91;71.97;93212.31;5032829;28;1914;-70
2022/12/11 13:06:53;;;;;;;;;;;;;;;15.97;72.16;93214.88;5033379;28;977;-71
2022/12/11 13:09:26;;;;;;;;;;;;;;;15.90;70.93;93221.47;5033021;28;1163;-71
2022/12/11 13:11:56;;;;;;;;;;;;;;;15.72;70.66;93225.94;5033122;28;1036;-71
2022/12/11 13:14:26;;;;;;;;;;;;;;;15.69;71.88;93223.75;5033094;28;981;-71
2022/12/11 13:17:04;;;;;;;;;;;;;;;15.58;71.68;93220.03;5032994;28;1054;-70
2022/12/11 13:19:32;;;;;;;;;;;;;;;15.55;71.29;93225.06;5033140;28;1041;-70
2022/12/11 13:21:58;;;;;;;;;;;;;;;15.54;70.71;93228.81;5015649;28;992;-71
2022/12/11 13:24:26;;;;;;;;;;;;;;;15.59;71.34;93235.13;5032943;28;1906;-70
2022/12/11 13:26:52;;;;;;;;;;;;;;;15.75;71.37;93238.97;5033033;28;1056;-70
2022/12/11 13:29:29;;;;;;;;;;;;;;;15.86;71.35;93241.84;5032875;28;995;-70
2022/12/11 13:31:56;;;;;;;;;;;;;;;15.97;71.92;93254.47;5033157;28;1048;-70